sensor_id;sensor_type;location;lat;lon;timestamp;temperature;humidity
24638;DHT22;12773;50.162;8.548;2023-05-10T00:01:55;15.80;99.90
24638;DHT22;12773;50.162;8.548;2023-05-10T00:04:42;15.60;99.90
24638;DHT22;12773;50.162;8.548;2023-05-10T00:07:30;15.50;99.90
24638;DHT22;12773;50.162;8.548;2023-05-10T00:10:17;15.40;99.90
24638;DHT22;12773;50.162;8.548;2023-05-10T00:13:05;15.40;99.90
24638;DHT22;12773;50.162;8.548;2023-05-10T00:15:53;15.40;99.90
24638;DHT22;12773;50.162;8.548;2023-05-10T00:18:40;15.40;99.90
24638;DHT22;12773;50.162;8.548;2023-05-10T00:21:28;15.30;99.90
24638;DHT22;12773;50.162;8.548;2023-05-10T00:24:15;15.40;99.90
24638;DHT22;12773;50.162;8.548;2023-05-10T00:27:03;15.30;99.90
24638;DHT22;12773;50.162;8.548;2023-05-10T00:29:50;15.30;99.90
24638;DHT22;12773;50.162;8.548;2023-05-10T00:32:38;15.20;99.90
24638;DHT22;12773;50.162;8.548;2023-05-10T00:35:26;15.20;99.90
24638;DHT22;12773;50.162;8.548;2023-05-10T00:38:13;15.20;99.90
24638;DHT22;12773;50.162;8.548;2023-05-10T00:41:01;15.20;99.90
24638;DHT22;12773;50.162;8.548;2023-05-10T00:43:49;15.10;99.90
24638;DHT22;12773;50.162;8.548;2023-05-10T00:46:36;15.00;99.90
24638;DHT22;12773;50.162;8.548;2023-05-10T00:49:24;15.10;99.90
24638;DHT22;12773;50.162;8.548;2023-05-10T00:52:11;15.10;99.90
24638;DHT22;12773;50.162;8.548;2023-05-10T00:54:59;15.00;99.90
24638;DHT22;12773;50.162;8.548;2023-05-10T00:57:47;14.90;99.90
24638;DHT22;12773;50.162;8.548;2023-05-10T01:00:35;14.80;99.90
24638;DHT22;12773;50.162;8.548;2023-05-10T01:03:24;14.80;99.90
24638;DHT22;12773;50.162;8.548;2023-05-10T01:06:12;14.80;99.90
24638;DHT22;12773;50.162;8.548;2023-05-10T01:08:59;14.80;99.90
24638;DHT22;12773;50.162;8.548;2023-05-10T01:11:47;14.70;99.90
24638;DHT22;12773;50.162;8.548;2023-05-10T01:14:34;14.90;99.90
24638;DHT22;12773;50.162;8.548;2023-05-10T01:17:22;15.00;99.90
24638;DHT22;12773;50.162;8.548;2023-05-10T01:20:11;15.10;99.90
24638;DHT22;12773;50.162;8.548;2023-05-10T01:23:10;15.10;99.90
24638;DHT22;12773;50.162;8.548;2023-05-10T01:29:24;15.20;99.90
24638;DHT22;12773;50.162;8.548;2023-05-10T01:38:50;15.20;99.90
24638;DHT22;12773;50.162;8.548;2023-05-10T01:41:56;15.20;99.90
24638;DHT22;12773;50.162;8.548;2023-05-10T01:48:06;15.20;99.90
24638;DHT22;12773;50.162;8.548;2023-05-10T01:50:56;15.10;99.90
24638;DHT22;12773;50.162;8.548;2023-05-10T01:53:46;15.00;99.90
24638;DHT22;12773;50.162;8.548;2023-05-10T01:56:35;15.10;99.90
24638;DHT22;12773;50.162;8.548;2023-05-10T01:59:27;15.10;99.90
24638;DHT22;12773;50.162;8.548;2023-05-10T02:02:15;15.10;99.90
24638;DHT22;12773;50.162;8.548;2023-05-10T02:05:07;15.10;99.90
24638;DHT22;12773;50.162;8.548;2023-05-10T02:07:57;15.10;99.90
24638;DHT22;12773;50.162;8.548;2023-05-10T02:10:45;15.10;99.90
24638;DHT22;12773;50.162;8.548;2023-05-10T02:13:35;15.20;99.90
24638;DHT22;12773;50.162;8.548;2023-05-10T02:16:25;15.20;99.90
24638;DHT22;12773;50.162;8.548;2023-05-10T02:19:14;15.20;99.90
24638;DHT22;12773;50.162;8.548;2023-05-10T02:22:02;15.20;99.90
24638;DHT22;12773;50.162;8.548;2023-05-10T02:24:51;15.20;99.90
24638;DHT22;12773;50.162;8.548;2023-05-10T02:27:39;15.20;99.90
24638;DHT22;12773;50.162;8.548;2023-05-10T02:30:29;15.20;99.90
24638;DHT22;12773;50.162;8.548;2023-05-10T02:33:19;15.10;99.90
24638;DHT22;12773;50.162;8.548;2023-05-10T02:36:08;15.10;99.90
24638;DHT22;12773;50.162;8.548;2023-05-10T02:38:58;15.10;99.90
24638;DHT22;12773;50.162;8.548;2023-05-10T02:41:49;15.00;99.90
24638;DHT22;12773;50.162;8.548;2023-05-10T02:44:37;15.00;99.90
24638;DHT22;12773;50.162;8.548;2023-05-10T02:47:26;15.00;99.90
24638;DHT22;12773;50.162;8.548;2023-05-10T02:50:14;15.00;99.90
24638;DHT22;12773;50.162;8.548;2023-05-10T02:53:08;15.00;99.90
24638;DHT22;12773;50.162;8.548;2023-05-10T02:55:54;15.00;99.90
24638;DHT22;12773;50.162;8.548;2023-05-10T02:58:43;15.10;99.90
24638;DHT22;12773;50.162;8.548;2023-05-10T03:01:34;15.10;99.90
24638;DHT22;12773;50.162;8.548;2023-05-10T03:04:21;15.10;99.90
24638;DHT22;12773;50.162;8.548;2023-05-10T03:07:08;15.00;99.90
24638;DHT22;12773;50.162;8.548;2023-05-10T03:09:56;14.90;99.90
24638;DHT22;12773;50.162;8.548;2023-05-10T03:13:16;14.90;99.90
24638;DHT22;12773;50.162;8.548;2023-05-10T03:16:07;14.90;99.90
24638;DHT22;12773;50.162;8.548;2023-05-10T03:19:01;14.90;99.90
24638;DHT22;12773;50.162;8.548;2023-05-10T03:21:49;14.90;99.90
24638;DHT22;12773;50.162;8.548;2023-05-10T03:24:38;14.90;99.90
24638;DHT22;12773;50.162;8.548;2023-05-10T03:27:27;14.80;99.90
24638;DHT22;12773;50.162;8.548;2023-05-10T03:30:14;14.70;99.90
24638;DHT22;12773;50.162;8.548;2023-05-10T03:33:06;14.70;99.90
24638;DHT22;12773;50.162;8.548;2023-05-10T03:35:53;14.70;99.90
24638;DHT22;12773;50.162;8.548;2023-05-10T03:38:41;14.60;99.90
24638;DHT22;12773;50.162;8.548;2023-05-10T03:41:29;14.60;99.90
24638;DHT22;12773;50.162;8.548;2023-05-10T03:44:16;14.60;99.90
24638;DHT22;12773;50.162;8.548;2023-05-10T03:47:04;14.60;99.90
24638;DHT22;12773;50.162;8.548;2023-05-10T03:49:51;14.60;99.90
24638;DHT22;12773;50.162;8.548;2023-05-10T03:52:38;14.70;99.90
24638;DHT22;12773;50.162;8.548;2023-05-10T03:55:26;14.70;99.90
24638;DHT22;12773;50.162;8.548;2023-05-10T03:58:14;14.80;99.90
24638;DHT22;12773;50.162;8.548;2023-05-10T04:01:02;14.80;99.90
24638;DHT22;12773;50.162;8.548;2023-05-10T04:03:49;14.80;99.90
24638;DHT22;12773;50.162;8.548;2023-05-10T04:06:38;14.80;99.90
24638;DHT22;12773;50.162;8.548;2023-05-10T04:09:25;14.70;99.90
24638;DHT22;12773;50.162;8.548;2023-05-10T04:12:13;14.80;99.90
24638;DHT22;12773;50.162;8.548;2023-05-10T04:15:00;14.90;99.90
24638;DHT22;12773;50.162;8.548;2023-05-10T04:17:48;15.00;99.90
24638;DHT22;12773;50.162;8.548;2023-05-10T04:20:35;15.10;99.90
24638;DHT22;12773;50.162;8.548;2023-05-10T04:23:23;15.20;99.90
24638;DHT22;12773;50.162;8.548;2023-05-10T04:26:10;15.20;99.90
24638;DHT22;12773;50.162;8.548;2023-05-10T04:28:58;15.30;99.90
24638;DHT22;12773;50.162;8.548;2023-05-10T04:31:45;15.40;99.90
24638;DHT22;12773;50.162;8.548;2023-05-10T04:34:32;15.30;99.90
24638;DHT22;12773;50.162;8.548;2023-05-10T04:37:20;15.30;99.90
24638;DHT22;12773;50.162;8.548;2023-05-10T04:40:10;15.20;99.90
24638;DHT22;12773;50.162;8.548;2023-05-10T04:42:57;15.30;99.90
24638;DHT22;12773;50.162;8.548;2023-05-10T04:45:44;15.30;99.90
24638;DHT22;12773;50.162;8.548;2023-05-10T04:48:32;15.30;99.90
24638;DHT22;12773;50.162;8.548;2023-05-10T04:51:19;15.30;99.90
24638;DHT22;12773;50.162;8.548;2023-05-10T04:54:07;15.30;99.90
24638;DHT22;12773;50.162;8.548;2023-05-10T04:56:54;15.40;99.90
24638;DHT22;12773;50.162;8.548;2023-05-10T04:59:42;15.50;99.90
24638;DHT22;12773;50.162;8.548;2023-05-10T05:02:29;15.60;99.90
24638;DHT22;12773;50.162;8.548;2023-05-10T05:05:17;15.70;99.90
24638;DHT22;12773;50.162;8.548;2023-05-10T05:08:04;15.80;99.90
24638;DHT22;12773;50.162;8.548;2023-05-10T05:10:54;15.90;99.90
24638;DHT22;12773;50.162;8.548;2023-05-10T05:13:41;16.00;99.90
24638;DHT22;12773;50.162;8.548;2023-05-10T05:16:30;16.00;99.90
24638;DHT22;12773;50.162;8.548;2023-05-10T05:19:19;16.10;99.90
24638;DHT22;12773;50.162;8.548;2023-05-10T05:22:07;16.00;99.90
24638;DHT22;12773;50.162;8.548;2023-05-10T05:24:55;16.10;99.90
24638;DHT22;12773;50.162;8.548;2023-05-10T05:27:44;16.00;99.90
24638;DHT22;12773;50.162;8.548;2023-05-10T05:30:32;16.00;99.90
24638;DHT22;12773;50.162;8.548;2023-05-10T05:33:19;15.90;99.90
24638;DHT22;12773;50.162;8.548;2023-05-10T05:36:07;15.90;99.90
24638;DHT22;12773;50.162;8.548;2023-05-10T05:38:55;15.90;99.90
24638;DHT22;12773;50.162;8.548;2023-05-10T05:41:42;15.80;99.90
24638;DHT22;12773;50.162;8.548;2023-05-10T05:44:30;15.70;99.90
24638;DHT22;12773;50.162;8.548;2023-05-10T05:47:18;15.70;99.90
24638;DHT22;12773;50.162;8.548;2023-05-10T05:50:05;15.60;99.90
24638;DHT22;12773;50.162;8.548;2023-05-10T05:52:53;15.60;99.90
24638;DHT22;12773;50.162;8.548;2023-05-10T05:55:40;15.60;99.90
24638;DHT22;12773;50.162;8.548;2023-05-10T05:58:28;15.40;99.90
24638;DHT22;12773;50.162;8.548;2023-05-10T06:01:15;15.40;99.90
24638;DHT22;12773;50.162;8.548;2023-05-10T06:04:03;15.30;99.90
24638;DHT22;12773;50.162;8.548;2023-05-10T06:06:50;15.30;99.90
24638;DHT22;12773;50.162;8.548;2023-05-10T06:09:38;15.40;99.90
24638;DHT22;12773;50.162;8.548;2023-05-10T06:12:25;15.40;99.90
24638;DHT22;12773;50.162;8.548;2023-05-10T06:15:12;15.40;99.90
24638;DHT22;12773;50.162;8.548;2023-05-10T06:18:00;15.40;99.90
24638;DHT22;12773;50.162;8.548;2023-05-10T06:20:49;15.40;99.90
24638;DHT22;12773;50.162;8.548;2023-05-10T06:23:36;15.60;99.90
24638;DHT22;12773;50.162;8.548;2023-05-10T06:26:23;15.60;99.90
24638;DHT22;12773;50.162;8.548;2023-05-10T06:29:11;15.60;99.90
24638;DHT22;12773;50.162;8.548;2023-05-10T06:31:58;15.70;99.90
24638;DHT22;12773;50.162;8.548;2023-05-10T06:34:45;15.70;99.90
24638;DHT22;12773;50.162;8.548;2023-05-10T06:37:33;15.70;99.90
24638;DHT22;12773;50.162;8.548;2023-05-10T06:40:20;15.80;99.90
24638;DHT22;12773;50.162;8.548;2023-05-10T06:43:09;16.00;99.90
24638;DHT22;12773;50.162;8.548;2023-05-10T06:45:57;16.00;99.90
24638;DHT22;12773;50.162;8.548;2023-05-10T06:48:45;15.90;99.90
24638;DHT22;12773;50.162;8.548;2023-05-10T06:51:32;16.00;99.90
24638;DHT22;12773;50.162;8.548;2023-05-10T06:54:20;15.90;99.90
24638;DHT22;12773;50.162;8.548;2023-05-10T06:57:07;16.00;99.90
24638;DHT22;12773;50.162;8.548;2023-05-10T06:59:55;16.20;99.90
24638;DHT22;12773;50.162;8.548;2023-05-10T07:02:43;16.30;99.90
24638;DHT22;12773;50.162;8.548;2023-05-10T07:05:30;16.30;99.90
24638;DHT22;12773;50.162;8.548;2023-05-10T07:08:17;16.50;99.90
24638;DHT22;12773;50.162;8.548;2023-05-10T07:11:06;16.50;99.90
24638;DHT22;12773;50.162;8.548;2023-05-10T07:13:53;16.50;99.90
24638;DHT22;12773;50.162;8.548;2023-05-10T07:16:42;16.50;99.90
24638;DHT22;12773;50.162;8.548;2023-05-10T07:19:30;16.50;99.90
24638;DHT22;12773;50.162;8.548;2023-05-10T07:22:19;16.60;99.90
24638;DHT22;12773;50.162;8.548;2023-05-10T07:25:06;16.60;99.90
24638;DHT22;12773;50.162;8.548;2023-05-10T07:27:54;16.40;99.90
24638;DHT22;12773;50.162;8.548;2023-05-10T07:30:41;16.20;99.90
24638;DHT22;12773;50.162;8.548;2023-05-10T07:33:29;16.20;99.90
24638;DHT22;12773;50.162;8.548;2023-05-10T07:36:16;16.30;99.90
24638;DHT22;12773;50.162;8.548;2023-05-10T07:39:04;16.20;99.90
24638;DHT22;12773;50.162;8.548;2023-05-10T07:41:51;16.10;99.90
24638;DHT22;12773;50.162;8.548;2023-05-10T07:44:39;16.20;99.90
24638;DHT22;12773;50.162;8.548;2023-05-10T07:47:26;16.10;99.90
24638;DHT22;12773;50.162;8.548;2023-05-10T07:50:14;16.20;99.90
24638;DHT22;12773;50.162;8.548;2023-05-10T07:53:01;16.40;99.90
24638;DHT22;12773;50.162;8.548;2023-05-10T07:55:54;16.50;99.90
24638;DHT22;12773;50.162;8.548;2023-05-10T07:58:41;16.60;99.90
24638;DHT22;12773;50.162;8.548;2023-05-10T08:01:31;16.60;99.90
24638;DHT22;12773;50.162;8.548;2023-05-10T08:04:19;16.70;99.90
24638;DHT22;12773;50.162;8.548;2023-05-10T08:07:06;16.70;99.90
24638;DHT22;12773;50.162;8.548;2023-05-10T08:09:54;16.70;99.90
24638;DHT22;12773;50.162;8.548;2023-05-10T08:12:42;16.90;99.90
24638;DHT22;12773;50.162;8.548;2023-05-10T08:15:29;16.80;99.90
24638;DHT22;12773;50.162;8.548;2023-05-10T08:18:16;16.90;99.90
24638;DHT22;12773;50.162;8.548;2023-05-10T08:21:05;17.00;99.90
24638;DHT22;12773;50.162;8.548;2023-05-10T08:23:53;17.00;99.90
24638;DHT22;12773;50.162;8.548;2023-05-10T08:26:41;17.20;99.90
24638;DHT22;12773;50.162;8.548;2023-05-10T08:29:28;17.20;99.90
24638;DHT22;12773;50.162;8.548;2023-05-10T08:32:17;17.30;99.90
24638;DHT22;12773;50.162;8.548;2023-05-10T08:35:05;17.60;99.90
24638;DHT22;12773;50.162;8.548;2023-05-10T08:37:52;17.60;99.90
24638;DHT22;12773;50.162;8.548;2023-05-10T08:40:42;17.60;99.90
24638;DHT22;12773;50.162;8.548;2023-05-10T08:43:30;17.50;99.90
24638;DHT22;12773;50.162;8.548;2023-05-10T08:46:19;17.20;99.90
24638;DHT22;12773;50.162;8.548;2023-05-10T08:49:07;17.10;99.90
24638;DHT22;12773;50.162;8.548;2023-05-10T08:51:55;17.00;99.90
24638;DHT22;12773;50.162;8.548;2023-05-10T08:54:44;17.00;99.90
24638;DHT22;12773;50.162;8.548;2023-05-10T08:57:31;16.90;99.90
24638;DHT22;12773;50.162;8.548;2023-05-10T09:00:20;16.70;99.90
24638;DHT22;12773;50.162;8.548;2023-05-10T09:03:07;16.60;99.90
24638;DHT22;12773;50.162;8.548;2023-05-10T09:05:55;16.60;99.90
24638;DHT22;12773;50.162;8.548;2023-05-10T09:08:43;16.60;99.90
24638;DHT22;12773;50.162;8.548;2023-05-10T09:11:32;16.80;99.90
24638;DHT22;12773;50.162;8.548;2023-05-10T09:14:20;17.00;99.90
24638;DHT22;12773;50.162;8.548;2023-05-10T09:17:07;17.40;99.90
24638;DHT22;12773;50.162;8.548;2023-05-10T09:19:59;17.60;99.90
24638;DHT22;12773;50.162;8.548;2023-05-10T09:22:47;17.60;99.90
24638;DHT22;12773;50.162;8.548;2023-05-10T09:25:35;17.50;99.90
24638;DHT22;12773;50.162;8.548;2023-05-10T09:28:24;17.50;99.90
24638;DHT22;12773;50.162;8.548;2023-05-10T09:31:11;17.50;99.90
24638;DHT22;12773;50.162;8.548;2023-05-10T09:33:59;17.60;99.90
24638;DHT22;12773;50.162;8.548;2023-05-10T09:36:57;17.70;99.90
24638;DHT22;12773;50.162;8.548;2023-05-10T09:39:40;17.80;99.90
24638;DHT22;12773;50.162;8.548;2023-05-10T09:42:28;18.00;99.90
24638;DHT22;12773;50.162;8.548;2023-05-10T09:45:15;18.40;99.90
24638;DHT22;12773;50.162;8.548;2023-05-10T09:48:03;18.70;99.90
24638;DHT22;12773;50.162;8.548;2023-05-10T09:50:58;19.00;99.90
24638;DHT22;12773;50.162;8.548;2023-05-10T09:53:47;19.20;99.90
24638;DHT22;12773;50.162;8.548;2023-05-10T09:56:36;19.00;99.90
24638;DHT22;12773;50.162;8.548;2023-05-10T09:59:27;18.70;99.90
24638;DHT22;12773;50.162;8.548;2023-05-10T10:02:14;18.50;99.90
24638;DHT22;12773;50.162;8.548;2023-05-10T10:05:02;18.50;99.90
24638;DHT22;12773;50.162;8.548;2023-05-10T10:07:50;18.30;99.90
24638;DHT22;12773;50.162;8.548;2023-05-10T10:10:38;18.10;99.90
24638;DHT22;12773;50.162;8.548;2023-05-10T10:13:31;18.30;99.90
24638;DHT22;12773;50.162;8.548;2023-05-10T10:16:20;18.40;99.90
24638;DHT22;12773;50.162;8.548;2023-05-10T10:19:08;18.40;99.90
24638;DHT22;12773;50.162;8.548;2023-05-10T10:21:55;18.40;99.90
24638;DHT22;12773;50.162;8.548;2023-05-10T10:24:43;18.20;99.90
24638;DHT22;12773;50.162;8.548;2023-05-10T10:27:37;18.00;99.90
24638;DHT22;12773;50.162;8.548;2023-05-10T10:30:34;18.00;99.90
24638;DHT22;12773;50.162;8.548;2023-05-10T10:33:46;18.00;99.90
24638;DHT22;12773;50.162;8.548;2023-05-10T10:36:29;17.70;99.90
24638;DHT22;12773;50.162;8.548;2023-05-10T10:39:20;17.50;99.90
24638;DHT22;12773;50.162;8.548;2023-05-10T10:42:08;17.00;99.90
24638;DHT22;12773;50.162;8.548;2023-05-10T10:45:12;17.00;99.90
24638;DHT22;12773;50.162;8.548;2023-05-10T10:48:22;16.80;99.90
24638;DHT22;12773;50.162;8.548;2023-05-10T10:51:09;16.80;99.90
24638;DHT22;12773;50.162;8.548;2023-05-10T10:54:08;16.70;99.90
24638;DHT22;12773;50.162;8.548;2023-05-10T11:03:11;16.90;99.90
24638;DHT22;12773;50.162;8.548;2023-05-10T11:06:04;17.10;99.90
24638;DHT22;12773;50.162;8.548;2023-05-10T11:08:51;17.40;99.90
24638;DHT22;12773;50.162;8.548;2023-05-10T11:11:51;17.50;99.90
24638;DHT22;12773;50.162;8.548;2023-05-10T11:14:39;17.60;99.90
24638;DHT22;12773;50.162;8.548;2023-05-10T11:17:27;17.90;99.90
24638;DHT22;12773;50.162;8.548;2023-05-10T11:20:15;18.20;99.90
24638;DHT22;12773;50.162;8.548;2023-05-10T11:23:14;18.50;99.90
24638;DHT22;12773;50.162;8.548;2023-05-10T11:26:02;18.60;99.90
24638;DHT22;12773;50.162;8.548;2023-05-10T11:28:49;18.40;99.90
24638;DHT22;12773;50.162;8.548;2023-05-10T11:31:44;18.10;99.90
24638;DHT22;12773;50.162;8.548;2023-05-10T11:34:32;17.80;99.90
24638;DHT22;12773;50.162;8.548;2023-05-10T11:37:22;17.90;99.90
24638;DHT22;12773;50.162;8.548;2023-05-10T11:40:10;18.10;99.90
24638;DHT22;12773;50.162;8.548;2023-05-10T11:42:57;18.40;99.90
24638;DHT22;12773;50.162;8.548;2023-05-10T11:45:45;18.60;99.90
24638;DHT22;12773;50.162;8.548;2023-05-10T11:48:32;18.80;99.90
24638;DHT22;12773;50.162;8.548;2023-05-10T11:51:24;18.70;99.90
24638;DHT22;12773;50.162;8.548;2023-05-10T11:54:12;18.80;99.90
24638;DHT22;12773;50.162;8.548;2023-05-10T11:57:00;18.90;99.90
24638;DHT22;12773;50.162;8.548;2023-05-10T11:59:49;18.80;99.90
24638;DHT22;12773;50.162;8.548;2023-05-10T12:02:37;18.80;99.90
24638;DHT22;12773;50.162;8.548;2023-05-10T12:05:25;19.20;99.90
24638;DHT22;12773;50.162;8.548;2023-05-10T12:08:14;19.50;99.90
24638;DHT22;12773;50.162;8.548;2023-05-10T12:11:07;20.00;99.90
24638;DHT22;12773;50.162;8.548;2023-05-10T12:13:56;20.30;99.90
24638;DHT22;12773;50.162;8.548;2023-05-10T12:16:44;20.60;99.90
24638;DHT22;12773;50.162;8.548;2023-05-10T12:19:38;20.90;99.90
24638;DHT22;12773;50.162;8.548;2023-05-10T12:22:26;21.40;99.90
24638;DHT22;12773;50.162;8.548;2023-05-10T12:25:14;21.30;99.90
24638;DHT22;12773;50.162;8.548;2023-05-10T12:28:03;21.10;99.90
24638;DHT22;12773;50.162;8.548;2023-05-10T12:30:53;21.20;99.90
24638;DHT22;12773;50.162;8.548;2023-05-10T12:33:42;21.30;99.90
24638;DHT22;12773;50.162;8.548;2023-05-10T12:36:31;21.10;99.90
24638;DHT22;12773;50.162;8.548;2023-05-10T12:39:18;20.90;99.90
24638;DHT22;12773;50.162;8.548;2023-05-10T12:42:05;21.00;99.90
24638;DHT22;12773;50.162;8.548;2023-05-10T12:44:57;21.10;99.90
24638;DHT22;12773;50.162;8.548;2023-05-10T12:47:45;20.70;99.90
24638;DHT22;12773;50.162;8.548;2023-05-10T12:50:32;20.40;99.90
24638;DHT22;12773;50.162;8.548;2023-05-10T12:53:20;20.40;99.90
24638;DHT22;12773;50.162;8.548;2023-05-10T12:56:07;20.30;99.90
24638;DHT22;12773;50.162;8.548;2023-05-10T12:58:55;20.40;99.90
24638;DHT22;12773;50.162;8.548;2023-05-10T13:01:42;20.60;99.90
24638;DHT22;12773;50.162;8.548;2023-05-10T13:04:30;20.60;99.90
24638;DHT22;12773;50.162;8.548;2023-05-10T13:07:18;20.60;99.90
24638;DHT22;12773;50.162;8.548;2023-05-10T13:10:06;20.70;99.90
24638;DHT22;12773;50.162;8.548;2023-05-10T13:12:54;20.40;99.90
24638;DHT22;12773;50.162;8.548;2023-05-10T13:15:42;19.90;99.90
24638;DHT22;12773;50.162;8.548;2023-05-10T13:18:29;19.50;99.90
24638;DHT22;12773;50.162;8.548;2023-05-10T13:21:16;19.40;99.90
24638;DHT22;12773;50.162;8.548;2023-05-10T13:24:04;19.40;99.90
24638;DHT22;12773;50.162;8.548;2023-05-10T13:26:51;19.30;99.90
24638;DHT22;12773;50.162;8.548;2023-05-10T13:29:39;19.50;99.90
24638;DHT22;12773;50.162;8.548;2023-05-10T13:32:28;19.50;99.90
24638;DHT22;12773;50.162;8.548;2023-05-10T13:35:15;19.20;99.90
24638;DHT22;12773;50.162;8.548;2023-05-10T13:38:03;19.00;99.90
24638;DHT22;12773;50.162;8.548;2023-05-10T13:40:50;18.80;99.90
24638;DHT22;12773;50.162;8.548;2023-05-10T13:43:39;18.80;99.90
24638;DHT22;12773;50.162;8.548;2023-05-10T13:46:27;18.80;99.90
24638;DHT22;12773;50.162;8.548;2023-05-10T13:49:14;19.00;99.90
24638;DHT22;12773;50.162;8.548;2023-05-10T13:52:02;19.10;99.90
24638;DHT22;12773;50.162;8.548;2023-05-10T13:54:51;19.20;99.90
24638;DHT22;12773;50.162;8.548;2023-05-10T13:57:40;19.40;99.90
24638;DHT22;12773;50.162;8.548;2023-05-10T14:00:28;19.50;99.90
24638;DHT22;12773;50.162;8.548;2023-05-10T14:03:16;19.50;99.90
24638;DHT22;12773;50.162;8.548;2023-05-10T14:06:03;19.90;99.90
24638;DHT22;12773;50.162;8.548;2023-05-10T14:08:51;20.10;99.90
24638;DHT22;12773;50.162;8.548;2023-05-10T14:11:38;20.10;99.90
24638;DHT22;12773;50.162;8.548;2023-05-10T14:14:27;20.40;99.90
24638;DHT22;12773;50.162;8.548;2023-05-10T14:17:15;20.60;99.90
24638;DHT22;12773;50.162;8.548;2023-05-10T14:20:03;20.70;99.90
24638;DHT22;12773;50.162;8.548;2023-05-10T14:22:50;20.80;99.90
24638;DHT22;12773;50.162;8.548;2023-05-10T14:25:41;21.00;99.90
24638;DHT22;12773;50.162;8.548;2023-05-10T14:28:29;21.10;99.90
24638;DHT22;12773;50.162;8.548;2023-05-10T14:31:17;21.00;99.90
24638;DHT22;12773;50.162;8.548;2023-05-10T14:34:05;21.20;99.90
24638;DHT22;12773;50.162;8.548;2023-05-10T14:36:53;21.40;99.90
24638;DHT22;12773;50.162;8.548;2023-05-10T14:39:41;21.20;99.90
24638;DHT22;12773;50.162;8.548;2023-05-10T14:42:28;21.20;99.90
24638;DHT22;12773;50.162;8.548;2023-05-10T14:45:16;21.00;99.90
24638;DHT22;12773;50.162;8.548;2023-05-10T14:48:04;21.00;99.90
24638;DHT22;12773;50.162;8.548;2023-05-10T14:50:52;20.80;99.90
24638;DHT22;12773;50.162;8.548;2023-05-10T14:53:39;20.70;99.90
24638;DHT22;12773;50.162;8.548;2023-05-10T14:56:26;20.60;99.90
24638;DHT22;12773;50.162;8.548;2023-05-10T14:59:14;20.80;99.90
24638;DHT22;12773;50.162;8.548;2023-05-10T15:02:02;21.10;99.90
24638;DHT22;12773;50.162;8.548;2023-05-10T15:04:51;21.10;99.90
24638;DHT22;12773;50.162;8.548;2023-05-10T15:07:38;21.30;99.90
24638;DHT22;12773;50.162;8.548;2023-05-10T15:10:26;21.40;99.90
24638;DHT22;12773;50.162;8.548;2023-05-10T15:13:13;21.40;99.90
24638;DHT22;12773;50.162;8.548;2023-05-10T15:16:01;21.40;99.90
24638;DHT22;12773;50.162;8.548;2023-05-10T15:18:48;21.50;99.90
24638;DHT22;12773;50.162;8.548;2023-05-10T15:21:36;21.60;99.90
24638;DHT22;12773;50.162;8.548;2023-05-10T15:24:24;21.70;99.90
24638;DHT22;12773;50.162;8.548;2023-05-10T15:27:12;21.60;99.90
24638;DHT22;12773;50.162;8.548;2023-05-10T15:30:00;21.60;99.90
24638;DHT22;12773;50.162;8.548;2023-05-10T15:32:48;21.50;99.90
24638;DHT22;12773;50.162;8.548;2023-05-10T15:35:35;21.30;99.90
24638;DHT22;12773;50.162;8.548;2023-05-10T15:38:24;21.00;99.90
24638;DHT22;12773;50.162;8.548;2023-05-10T15:41:12;21.20;99.90
24638;DHT22;12773;50.162;8.548;2023-05-10T15:43:59;21.10;99.90
24638;DHT22;12773;50.162;8.548;2023-05-10T15:46:46;21.40;99.90
24638;DHT22;12773;50.162;8.548;2023-05-10T15:49:34;21.60;99.90
24638;DHT22;12773;50.162;8.548;2023-05-10T15:52:21;21.90;99.90
24638;DHT22;12773;50.162;8.548;2023-05-10T15:55:09;21.90;99.90
24638;DHT22;12773;50.162;8.548;2023-05-10T15:58:00;21.70;99.90
24638;DHT22;12773;50.162;8.548;2023-05-10T16:00:48;21.70;99.90
24638;DHT22;12773;50.162;8.548;2023-05-10T16:03:35;21.70;99.90
24638;DHT22;12773;50.162;8.548;2023-05-10T16:06:23;21.60;99.90
24638;DHT22;12773;50.162;8.548;2023-05-10T16:09:10;21.40;99.90
24638;DHT22;12773;50.162;8.548;2023-05-10T16:11:57;21.60;99.90
24638;DHT22;12773;50.162;8.548;2023-05-10T16:14:45;21.50;99.90
24638;DHT22;12773;50.162;8.548;2023-05-10T16:17:33;21.50;99.90
24638;DHT22;12773;50.162;8.548;2023-05-10T16:20:20;21.30;99.90
24638;DHT22;12773;50.162;8.548;2023-05-10T16:23:08;20.80;99.90
24638;DHT22;12773;50.162;8.548;2023-05-10T16:25:58;20.60;99.90
24638;DHT22;12773;50.162;8.548;2023-05-10T16:28:46;20.40;99.90
24638;DHT22;12773;50.162;8.548;2023-05-10T16:31:33;20.30;99.90
24638;DHT22;12773;50.162;8.548;2023-05-10T16:34:21;20.20;99.90
24638;DHT22;12773;50.162;8.548;2023-05-10T16:37:09;20.20;99.90
24638;DHT22;12773;50.162;8.548;2023-05-10T16:39:57;20.10;99.90
24638;DHT22;12773;50.162;8.548;2023-05-10T16:42:45;20.00;99.90
24638;DHT22;12773;50.162;8.548;2023-05-10T16:45:34;19.90;99.90
24638;DHT22;12773;50.162;8.548;2023-05-10T16:48:22;19.90;99.90
24638;DHT22;12773;50.162;8.548;2023-05-10T16:51:09;19.80;99.90
24638;DHT22;12773;50.162;8.548;2023-05-10T16:53:57;19.80;99.90
24638;DHT22;12773;50.162;8.548;2023-05-10T16:56:45;19.70;99.90
24638;DHT22;12773;50.162;8.548;2023-05-10T16:59:33;19.70;99.90
24638;DHT22;12773;50.162;8.548;2023-05-10T17:02:20;19.60;99.90
24638;DHT22;12773;50.162;8.548;2023-05-10T17:05:08;19.40;99.90
24638;DHT22;12773;50.162;8.548;2023-05-10T17:07:55;19.30;99.90
24638;DHT22;12773;50.162;8.548;2023-05-10T17:10:43;19.20;99.90
24638;DHT22;12773;50.162;8.548;2023-05-10T17:13:31;19.20;99.90
24638;DHT22;12773;50.162;8.548;2023-05-10T17:16:18;19.10;99.90
24638;DHT22;12773;50.162;8.548;2023-05-10T17:19:07;19.20;99.90
24638;DHT22;12773;50.162;8.548;2023-05-10T17:21:55;19.20;99.90
24638;DHT22;12773;50.162;8.548;2023-05-10T17:24:43;19.30;99.90
24638;DHT22;12773;50.162;8.548;2023-05-10T17:27:31;19.40;99.90
24638;DHT22;12773;50.162;8.548;2023-05-10T17:30:18;19.50;99.90
24638;DHT22;12773;50.162;8.548;2023-05-10T17:33:07;19.50;99.90
24638;DHT22;12773;50.162;8.548;2023-05-10T17:35:55;19.50;99.90
24638;DHT22;12773;50.162;8.548;2023-05-10T17:38:43;19.60;99.90
24638;DHT22;12773;50.162;8.548;2023-05-10T17:41:31;19.60;99.90
24638;DHT22;12773;50.162;8.548;2023-05-10T17:44:19;19.60;99.90
24638;DHT22;12773;50.162;8.548;2023-05-10T17:47:07;19.70;99.90
24638;DHT22;12773;50.162;8.548;2023-05-10T17:49:54;19.70;99.90
24638;DHT22;12773;50.162;8.548;2023-05-10T17:52:41;19.70;99.90
24638;DHT22;12773;50.162;8.548;2023-05-10T17:55:29;19.70;99.90
24638;DHT22;12773;50.162;8.548;2023-05-10T17:58:16;19.70;99.90
24638;DHT22;12773;50.162;8.548;2023-05-10T18:01:04;19.70;99.90
24638;DHT22;12773;50.162;8.548;2023-05-10T18:03:51;19.70;99.90